createdAt,value
2022-09-23T00:00:49.383Z,14.23
2022-09-23T00:03:17.194Z,17.90
2022-09-23T00:05:44.649Z,14.75
2022-09-23T00:08:12.969Z,20.98
2022-09-23T00:10:40.857Z,17.58
2022-09-23T00:15:40.585Z,13.90
2022-09-23T00:18:08.043Z,14.57
2022-09-23T00:20:35.997Z,20.85
2022-09-23T00:25:30.585Z,14.70
2022-09-23T00:27:58.855Z,13.82
2022-09-23T00:30:27.520Z,14.40
2022-09-23T00:32:56.707Z,12.00
2022-09-23T00:35:24.273Z,13.88
2022-09-23T00:37:51.715Z,13.50
2022-09-23T00:40:19.180Z,16.40
2022-09-23T00:42:47.620Z,13.95
2022-09-23T00:45:15.685Z,17.30
2022-09-23T00:47:45.556Z,12.65
2022-09-23T00:50:15.894Z,13.90
2022-09-23T00:52:44.332Z,10.82
2022-09-23T00:55:13.952Z,16.75
2022-09-23T00:57:42.844Z,11.57
2022-09-23T01:00:10.954Z,14.02
2022-09-23T01:02:39.445Z,14.27
2022-09-23T01:05:08.447Z,13.00
2022-09-23T01:07:37.147Z,14.48
2022-09-23T01:10:05.453Z,14.02
2022-09-23T01:12:40.144Z,14.15
2022-09-23T01:15:10.696Z,14.20
2022-09-23T01:17:40.421Z,13.38
2022-09-23T01:20:38.000Z,17.25
2022-09-23T01:23:13.819Z,16.00
2022-09-23T01:25:55.238Z,20.90
2022-09-23T01:28:34.175Z,9.80
2022-09-23T01:31:05.978Z,18.63
2022-09-23T01:33:36.182Z,12.93
2022-09-23T01:36:10.812Z,16.70
2022-09-23T01:38:42.930Z,24.63
2022-09-23T01:41:17.243Z,11.75
2022-09-23T01:43:48.844Z,9.52
2022-09-23T01:46:20.548Z,13.55
2022-09-23T01:48:52.047Z,10.25
2022-09-23T01:51:21.346Z,12.57
2022-09-23T01:53:53.402Z,13.93
2022-09-23T01:56:23.681Z,12.40
2022-09-23T01:58:53.740Z,15.30
2022-09-23T02:01:25.852Z,13.05
2022-09-23T02:03:56.711Z,13.63
2022-09-23T02:06:26.928Z,12.10
2022-09-23T02:08:57.546Z,14.43
2022-09-23T02:11:25.345Z,14.13
2022-09-23T02:13:54.080Z,10.50
2022-09-23T02:16:26.171Z,15.02
2022-09-23T02:18:56.735Z,11.13
2022-09-23T02:21:25.837Z,10.85
2022-09-23T02:23:54.052Z,14.38
2022-09-23T02:26:23.756Z,27.38
2022-09-23T02:28:56.411Z,13.80
2022-09-23T02:31:31.036Z,17.77
2022-09-23T02:34:01.048Z,15.27
2022-09-23T02:36:31.389Z,11.93
2022-09-23T02:39:00.363Z,14.70
2022-09-23T02:41:29.707Z,20.58
2022-09-23T02:43:59.759Z,15.23
2022-09-23T02:46:29.973Z,16.17
2022-09-23T02:49:00.853Z,13.70
2022-09-23T02:51:28.889Z,12.35
2022-09-23T02:53:56.690Z,11.23
2022-09-23T02:56:24.071Z,16.85
2022-09-23T02:58:53.462Z,20.23
2022-09-23T03:01:26.192Z,19.80
2022-09-23T03:03:57.051Z,18.92
2022-09-23T03:06:31.338Z,11.57
2022-09-23T03:09:00.447Z,18.02
2022-09-23T03:11:28.265Z,14.20
2022-09-23T03:14:04.978Z,14.00
2022-09-23T03:16:35.612Z,11.52
2022-09-23T03:19:12.703Z,11.05
2022-09-23T03:21:42.158Z,10.32
2022-09-23T03:24:10.469Z,17.60
2022-09-23T03:26:39.795Z,11.23
2022-09-23T03:29:11.147Z,9.45
2022-09-23T03:31:39.965Z,8.50
2022-09-23T03:34:10.898Z,11.10
2022-09-23T03:36:51.874Z,9.85
2022-09-23T03:39:25.051Z,12.70
2022-09-23T03:41:53.643Z,12.65
2022-09-23T03:44:21.662Z,26.52
2022-09-23T03:46:50.492Z,13.75
2022-09-23T03:49:22.809Z,13.90
2022-09-23T03:51:50.198Z,11.15
2022-09-23T03:54:20.254Z,14.93
2022-09-23T03:56:48.488Z,13.98
2022-09-23T03:59:15.983Z,13.15
2022-09-23T04:01:43.483Z,14.15
2022-09-23T04:04:11.451Z,14.80
2022-09-23T04:06:40.194Z,11.23
2022-09-23T04:09:07.857Z,12.52
2022-09-23T04:11:35.360Z,11.68
2022-09-23T04:14:02.756Z,14.48
2022-09-23T04:16:30.189Z,10.60
2022-09-23T04:18:57.610Z,20.63
2022-09-23T04:21:25.350Z,18.15
2022-09-23T04:23:54.097Z,8.85
2022-09-23T04:26:21.541Z,19.33
2022-09-23T04:28:48.941Z,22.52
2022-09-23T04:31:16.414Z,20.17
2022-09-23T04:33:43.919Z,25.02
2022-09-23T04:36:11.325Z,17.05
2022-09-23T04:38:38.774Z,27.77
2022-09-23T04:41:10.504Z,23.55
2022-09-23T04:43:37.921Z,11.45
2022-09-23T04:46:06.332Z,21.10
2022-09-23T04:48:33.827Z,14.52
2022-09-23T04:51:04.946Z,11.15
2022-09-23T04:53:32.611Z,23.60
2022-09-23T04:56:02.156Z,27.55
2022-09-23T04:58:30.893Z,22.13
2022-09-23T05:01:02.971Z,38.17
2022-09-23T05:03:35.586Z,14.57
2022-09-23T05:06:03.053Z,31.88
2022-09-23T05:08:30.626Z,16.08
2022-09-23T05:10:58.740Z,31.55
2022-09-23T05:13:26.269Z,11.90
2022-09-23T05:15:59.597Z,21.40
2022-09-23T05:18:27.080Z,20.02
2022-09-23T05:20:55.308Z,19.88
2022-09-23T05:23:22.903Z,16.42
2022-09-23T05:25:50.421Z,29.05
2022-09-23T05:28:20.024Z,10.60
2022-09-23T05:30:47.446Z,17.92
2022-09-23T05:33:16.183Z,15.00
2022-09-23T05:35:47.009Z,26.75
2022-09-23T05:38:16.325Z,28.88
2022-09-23T05:40:44.160Z,14.52
2022-09-23T05:45:39.082Z,9.05
2022-09-23T05:48:06.505Z,18.77
2022-09-23T05:50:35.424Z,14.57
2022-09-23T05:53:02.819Z,21.20
2022-09-23T05:55:30.787Z,12.10
2022-09-23T06:00:25.921Z,12.75
2022-09-23T06:02:53.410Z,15.95
2022-09-23T06:05:20.865Z,14.80
2022-09-23T06:07:49.619Z,16.20
2022-09-23T06:10:17.133Z,20.67
2022-09-23T06:12:44.920Z,11.18
2022-09-23T06:15:12.996Z,16.17
2022-09-23T06:17:40.383Z,35.53
2022-09-23T06:20:08.319Z,27.50
2022-09-23T06:25:08.231Z,16.60
2022-09-23T06:27:35.607Z,14.65
2022-09-23T06:30:03.041Z,15.35
2022-09-23T06:32:30.430Z,11.88
2022-09-23T06:34:57.855Z,24.50
2022-09-23T06:37:25.368Z,18.83
2022-09-23T06:39:54.749Z,24.02
2022-09-23T06:42:23.538Z,16.70
2022-09-23T06:44:50.930Z,13.45
2022-09-23T06:47:18.325Z,37.53
2022-09-23T06:49:45.724Z,18.45
2022-09-23T06:52:13.119Z,14.40
2022-09-23T06:54:40.524Z,21.77
2022-09-23T06:57:07.907Z,15.65
2022-09-23T06:59:36.655Z,16.17
2022-09-23T07:02:04.251Z,17.58
2022-09-23T07:04:31.909Z,14.38
2022-09-23T07:06:59.362Z,17.05
2022-09-23T07:09:27.732Z,14.30
2022-09-23T07:11:55.111Z,8.90
2022-09-23T07:14:22.626Z,12.55
2022-09-23T07:16:53.165Z,4.82
2022-09-23T07:19:20.555Z,7.32
2022-09-23T07:21:47.928Z,5.07
2022-09-23T07:24:15.544Z,6.53
2022-09-23T07:26:45.680Z,8.05
2022-09-23T07:29:13.667Z,7.20
2022-09-23T07:31:41.165Z,10.73
2022-09-23T07:34:11.362Z,6.90
2022-09-23T07:36:40.754Z,6.25
2022-09-23T07:39:09.114Z,5.20
2022-09-23T07:41:37.052Z,7.03
2022-09-23T07:46:34.492Z,10.75
2022-09-23T07:49:03.115Z,5.30
2022-09-23T07:51:36.112Z,5.88
2022-09-23T07:54:05.235Z,8.32
2022-09-23T07:56:33.204Z,10.45
2022-09-23T08:01:33.029Z,8.98
2022-09-23T08:04:01.264Z,7.25
2022-09-23T08:06:28.642Z,8.93
2022-09-23T08:08:59.243Z,11.18
2022-09-23T08:11:26.903Z,6.38
2022-09-23T08:13:54.373Z,9.90
2022-09-23T08:16:21.962Z,6.68
2022-09-23T08:18:49.798Z,10.48
2022-09-23T08:21:19.666Z,9.95
2022-09-23T08:23:47.060Z,7.40
2022-09-23T08:26:20.920Z,7.65
2022-09-23T08:28:49.543Z,15.18
2022-09-23T08:31:17.086Z,8.85
2022-09-23T08:33:44.556Z,5.43
2022-09-23T08:36:12.042Z,13.02
2022-09-23T08:38:39.432Z,4.93
2022-09-23T08:41:10.248Z,5.47
2022-09-23T08:43:39.519Z,12.38
2022-09-23T08:46:10.677Z,7.57
2022-09-23T08:48:42.076Z,9.57
2022-09-23T08:51:13.621Z,5.60
2022-09-23T08:53:42.149Z,5.07
2022-09-23T08:56:13.131Z,8.63
2022-09-23T08:58:48.661Z,8.57
2022-09-23T09:01:20.394Z,5.05
2022-09-23T09:03:49.833Z,3.85
2022-09-23T09:06:19.709Z,7.60
2022-09-23T09:08:51.028Z,4.50
2022-09-23T09:11:19.158Z,7.30
2022-09-23T09:13:54.116Z,4.15
2022-09-23T09:16:55.498Z,5.20
2022-09-23T09:19:19.932Z,8.38
2022-09-23T09:21:48.722Z,11.30
2022-09-23T09:24:18.728Z,7.80
2022-09-23T09:26:46.200Z,10.25
2022-09-23T09:29:34.097Z,10.07
2022-09-23T09:32:14.204Z,8.18
2022-09-23T09:34:46.143Z,8.40
2022-09-23T09:37:16.576Z,15.73
2022-09-23T09:39:44.013Z,12.48
2022-09-23T09:42:15.211Z,6.15
2022-09-23T09:44:49.852Z,10.70
2022-09-23T09:47:28.295Z,6.20
2022-09-23T09:49:58.976Z,6.50
2022-09-23T09:52:28.660Z,6.88
2022-09-23T09:54:59.053Z,5.45
2022-09-23T09:57:33.569Z,4.78
2022-09-23T10:00:18.752Z,9.50
2022-09-23T10:02:49.188Z,5.32
2022-09-23T10:05:25.588Z,10.05
2022-09-23T10:07:53.004Z,6.45
2022-09-23T10:10:32.235Z,6.10
2022-09-23T10:13:14.038Z,4.88
2022-09-23T10:15:44.872Z,11.40
2022-09-23T10:18:20.438Z,8.60
2022-09-23T10:20:48.963Z,8.77
2022-09-23T10:23:20.966Z,5.50
2022-09-23T10:25:56.489Z,6.07
2022-09-23T10:28:34.176Z,4.85
2022-09-23T10:33:32.067Z,4.82
2022-09-23T10:35:59.567Z,5.85
2022-09-23T10:38:26.973Z,3.53
2022-09-23T10:41:12.747Z,6.82
2022-09-23T10:44:00.871Z,10.10
2022-09-23T10:46:42.239Z,5.13
2022-09-23T10:49:19.408Z,6.32
2022-09-23T10:51:49.627Z,6.72
2022-09-23T10:54:20.956Z,9.35
2022-09-23T10:56:50.568Z,6.20
2022-09-23T10:59:31.512Z,12.77
2022-09-23T11:02:05.838Z,5.60
2022-09-23T11:04:43.195Z,5.97
2022-09-23T11:07:19.168Z,4.65
2022-09-23T11:09:53.089Z,4.82
2022-09-23T11:12:26.087Z,5.05
2022-09-23T11:15:04.561Z,8.60
2022-09-23T11:17:46.875Z,3.67
2022-09-23T11:20:31.902Z,6.95
2022-09-23T11:23:20.122Z,9.75
2022-09-23T11:25:51.530Z,4.80
2022-09-23T11:28:30.255Z,6.88
2022-09-23T11:31:04.131Z,6.68
2022-09-23T11:33:36.715Z,6.70
2022-09-23T11:36:07.692Z,7.82
2022-09-23T11:38:38.456Z,5.38
2022-09-23T11:41:12.952Z,4.57
2022-09-23T11:43:41.315Z,7.57
2022-09-23T11:46:13.692Z,8.38
2022-09-23T11:48:43.045Z,5.97
2022-09-23T11:51:14.281Z,8.90
2022-09-23T11:53:44.078Z,6.72
2022-09-23T11:56:24.060Z,6.30
2022-09-23T11:59:00.004Z,5.78
2022-09-23T12:01:37.197Z,11.55
2022-09-23T12:06:48.532Z,7.45
2022-09-23T12:09:30.995Z,4.60
2022-09-23T12:12:11.194Z,5.25
2022-09-23T12:14:44.618Z,4.10
2022-09-23T12:17:21.862Z,5.40
2022-09-23T12:19:58.191Z,7.70
2022-09-23T12:22:40.402Z,7.45
2022-09-23T12:25:14.269Z,6.93
2022-09-23T12:27:44.748Z,5.30
2022-09-23T12:30:15.005Z,5.65
2022-09-23T12:32:42.990Z,3.70
2022-09-23T12:35:21.979Z,5.35
2022-09-23T12:37:50.957Z,5.45
2022-09-23T12:40:21.587Z,4.72
2022-09-23T12:42:49.664Z,3.75
2022-09-23T12:45:20.165Z,5.82
2022-09-23T12:47:47.699Z,9.75
2022-09-23T12:50:45.328Z,6.43
2022-09-23T12:53:31.015Z,4.60
2022-09-23T12:56:00.290Z,4.05
2022-09-23T12:58:38.408Z,5.72
2022-09-23T13:01:09.899Z,4.88
2022-09-23T13:03:55.036Z,4.53
2022-09-23T13:06:40.784Z,4.97
2022-09-23T13:09:09.823Z,4.55
2022-09-23T13:11:41.344Z,5.95
2022-09-23T13:14:08.915Z,5.72
2022-09-23T13:16:38.444Z,4.30
2022-09-23T13:19:06.481Z,4.90
2022-09-23T13:21:52.715Z,8.93
2022-09-23T13:24:21.230Z,7.85
2022-09-23T13:26:51.250Z,3.33
2022-09-23T13:29:21.215Z,6.82
2022-09-23T13:31:48.791Z,3.25
2022-09-23T13:34:17.323Z,5.13
2022-09-23T13:36:45.258Z,7.07
2022-09-23T13:39:16.335Z,9.20
2022-09-23T13:41:44.928Z,9.82
2022-09-23T13:44:16.838Z,12.30
2022-09-23T13:46:46.627Z,6.43
2022-09-23T13:49:21.249Z,5.25
2022-09-23T13:51:48.741Z,4.20
2022-09-23T13:54:28.734Z,3.63
2022-09-23T13:56:56.444Z,8.23
2022-09-23T13:59:26.881Z,9.07
2022-09-23T14:02:03.051Z,4.85
2022-09-23T14:04:30.577Z,4.30
2022-09-23T14:06:58.137Z,6.90
2022-09-23T14:09:27.321Z,5.22
2022-09-23T14:11:55.784Z,8.90
2022-09-23T14:14:23.283Z,12.32
2022-09-23T14:16:52.768Z,5.07
2022-09-23T14:19:21.869Z,11.73
2022-09-23T14:21:49.920Z,7.85
2022-09-23T14:24:18.851Z,5.07
2022-09-23T14:26:48.163Z,5.97
2022-09-23T14:29:17.361Z,8.50
2022-09-23T14:31:56.575Z,5.43
2022-09-23T14:34:39.145Z,5.50
2022-09-23T14:37:28.990Z,5.72
2022-09-23T14:39:57.904Z,8.10
2022-09-23T14:42:25.998Z,8.73
2022-09-23T14:44:53.505Z,4.30
2022-09-23T14:47:20.919Z,5.35
2022-09-23T14:50:09.424Z,6.72
2022-09-23T14:52:38.227Z,14.82
2022-09-23T14:55:06.895Z,7.47
2022-09-23T14:57:34.486Z,6.80
2022-09-23T15:00:09.148Z,5.70
2022-09-23T15:02:37.507Z,11.63
2022-09-23T15:05:09.500Z,4.68
2022-09-23T15:07:39.090Z,10.43
2022-09-23T15:10:09.566Z,5.43
2022-09-23T15:12:37.252Z,9.63
2022-09-23T15:15:06.176Z,8.50
2022-09-23T15:17:34.944Z,5.97
2022-09-23T15:20:03.534Z,6.70
2022-09-23T15:22:31.043Z,15.07
2022-09-23T15:25:12.685Z,7.88
2022-09-23T15:27:40.763Z,7.70
2022-09-23T15:30:15.425Z,4.72
2022-09-23T15:32:43.321Z,4.45
2022-09-23T15:35:13.592Z,10.65
2022-09-23T15:37:41.057Z,7.28
2022-09-23T15:40:12.384Z,16.00
2022-09-23T15:42:39.833Z,14.55
2022-09-23T15:45:09.215Z,9.18
2022-09-23T15:47:37.894Z,12.52
2022-09-23T15:50:07.196Z,11.13
2022-09-23T15:52:34.661Z,12.90
2022-09-23T15:55:02.099Z,13.55
2022-09-23T15:57:30.816Z,10.65
2022-09-23T15:59:58.718Z,8.23
2022-09-23T16:04:53.578Z,15.95
2022-09-23T16:07:21.749Z,14.98
2022-09-23T16:09:49.177Z,7.30
2022-09-23T16:12:16.622Z,7.00
2022-09-23T16:14:45.385Z,8.98
2022-09-23T16:17:14.075Z,9.43
2022-09-23T16:19:41.461Z,13.88
2022-09-23T16:22:08.882Z,10.55
2022-09-23T16:24:36.321Z,11.27
2022-09-23T16:27:05.678Z,12.65
2022-09-23T16:29:33.080Z,11.25
2022-09-23T16:32:02.076Z,12.20
2022-09-23T16:34:29.581Z,17.02
2022-09-23T16:36:57.065Z,15.63
2022-09-23T16:39:24.472Z,8.35
2022-09-23T16:41:52.597Z,8.85
2022-09-23T16:44:20.293Z,14.13
2022-09-23T16:46:47.823Z,14.68
2022-09-23T16:49:16.614Z,15.10
2022-09-23T16:51:44.059Z,7.20
2022-09-23T16:54:12.127Z,12.40
2022-09-23T16:56:41.591Z,13.50
2022-09-23T16:59:09.049Z,16.05
2022-09-23T17:01:53.986Z,9.88
2022-09-23T17:04:22.783Z,11.07
2022-09-23T17:06:51.421Z,11.38
2022-09-23T17:09:19.795Z,12.13
2022-09-23T17:11:49.412Z,9.20
2022-09-23T17:14:16.840Z,17.20
2022-09-23T17:16:44.316Z,12.25
2022-09-23T17:19:12.660Z,10.40
2022-09-23T17:21:41.713Z,17.90
2022-09-23T17:24:09.940Z,15.50
2022-09-23T17:26:38.190Z,13.73
2022-09-23T17:29:06.138Z,12.20
2022-09-23T17:34:00.894Z,12.68
2022-09-23T17:36:28.797Z,13.18
2022-09-23T17:41:24.820Z,8.48
2022-09-23T17:43:56.523Z,12.55
2022-09-23T17:46:23.971Z,10.45
2022-09-23T17:48:52.841Z,12.45
2022-09-23T17:51:20.563Z,13.00
2022-09-23T17:53:48.790Z,15.55
2022-09-23T17:56:17.336Z,10.98
2022-09-23T17:58:46.909Z,19.83
2022-09-23T18:01:15.760Z,12.45
2022-09-23T18:03:43.792Z,17.17
2022-09-23T18:06:12.257Z,11.00
2022-09-23T18:08:40.400Z,15.15
2022-09-23T18:11:14.479Z,13.52
2022-09-23T18:13:42.009Z,17.90
2022-09-23T18:16:10.890Z,10.30
2022-09-23T18:18:38.345Z,14.23
2022-09-23T18:21:06.655Z,16.75
2022-09-23T18:23:34.082Z,28.35
2022-09-23T18:26:01.539Z,11.18
2022-09-23T18:28:34.060Z,10.93
2022-09-23T18:31:02.390Z,12.60
2022-09-23T18:33:31.158Z,14.43
2022-09-23T18:35:59.883Z,19.92
2022-09-23T18:38:27.427Z,16.48
2022-09-23T18:40:56.956Z,21.27
2022-09-23T18:43:25.954Z,13.05
2022-09-23T18:45:57.526Z,28.23
2022-09-23T18:48:42.471Z,17.42
2022-09-23T18:51:11.836Z,10.57
2022-09-23T18:53:39.254Z,15.48
2022-09-23T18:56:07.389Z,15.10
2022-09-23T18:58:34.819Z,18.63
2022-09-23T19:01:06.328Z,17.45
2022-09-23T19:03:33.912Z,14.32
2022-09-23T19:06:01.963Z,13.32
2022-09-23T19:08:31.036Z,15.52
2022-09-23T19:10:59.183Z,19.88
2022-09-23T19:13:26.642Z,15.85
2022-09-23T19:15:54.100Z,13.93
2022-09-23T19:18:21.652Z,14.52
2022-09-23T19:20:52.570Z,15.98
2022-09-23T19:23:20.011Z,12.10
2022-09-23T19:25:48.862Z,13.93
2022-09-23T19:28:16.251Z,17.80
2022-09-23T19:30:43.641Z,22.00
2022-09-23T19:33:11.045Z,17.23
2022-09-23T19:35:47.369Z,15.00
2022-09-23T19:38:15.987Z,14.57
2022-09-23T19:40:49.046Z,16.85
2022-09-23T19:43:21.061Z,20.95
2022-09-23T19:45:53.756Z,20.52
2022-09-23T19:48:21.251Z,16.45
2022-09-23T19:50:48.918Z,21.23
2022-09-23T19:53:16.355Z,13.30
2022-09-23T19:55:44.206Z,13.40
2022-09-23T20:00:40.400Z,18.63
2022-09-23T20:03:09.764Z,20.00
2022-09-23T20:05:37.171Z,15.50
2022-09-23T20:08:04.941Z,15.80
2022-09-23T20:10:32.668Z,18.08
2022-09-23T20:13:00.359Z,25.10
2022-09-23T20:15:28.930Z,14.68
2022-09-23T20:17:58.243Z,14.32
2022-09-23T20:20:25.669Z,15.65
2022-09-23T20:22:55.016Z,17.90
2022-09-23T20:25:22.481Z,17.15
2022-09-23T20:27:52.001Z,15.85
2022-09-23T20:30:19.513Z,22.52
2022-09-23T20:32:48.472Z,16.52
2022-09-23T20:35:17.241Z,18.60
2022-09-23T20:37:44.648Z,21.02
2022-09-23T20:40:12.132Z,19.42
2022-09-23T20:42:39.586Z,13.27
2022-09-23T20:45:07.899Z,16.83
2022-09-23T20:47:35.302Z,13.40
2022-09-23T20:50:02.736Z,17.77
2022-09-23T20:52:32.906Z,22.55
2022-09-23T20:55:02.165Z,15.25
2022-09-23T20:57:31.347Z,21.05
2022-09-23T20:59:58.946Z,16.42
2022-09-23T21:02:27.240Z,15.48
2022-09-23T21:04:56.774Z,19.30
2022-09-23T21:07:24.500Z,13.43
2022-09-23T21:09:53.284Z,15.93
2022-09-23T21:12:20.664Z,14.23
2022-09-23T21:14:48.081Z,15.68
2022-09-23T21:17:15.477Z,13.88
2022-09-23T21:19:42.870Z,23.80
2022-09-23T21:22:10.401Z,16.48
2022-09-23T21:25:25.066Z,15.60
2022-09-23T21:27:27.033Z,26.05
2022-09-23T21:29:57.414Z,24.85
2022-09-23T21:32:24.938Z,19.50
2022-09-23T21:34:52.458Z,19.65
2022-09-23T21:37:19.857Z,17.67
2022-09-23T21:40:07.326Z,20.05
2022-09-23T21:42:36.195Z,15.32
2022-09-23T21:45:04.097Z,24.13
2022-09-23T21:49:59.753Z,16.70
2022-09-23T21:52:27.224Z,23.33
2022-09-23T21:54:54.623Z,23.08
2022-09-23T21:57:25.750Z,15.27
2022-09-23T21:59:54.656Z,23.58
2022-09-23T22:02:22.498Z,20.40
2022-09-23T22:04:49.897Z,20.67
2022-09-23T22:07:17.414Z,21.45
2022-09-23T22:09:46.831Z,22.00
2022-09-23T22:12:14.243Z,27.10
2022-09-23T22:14:42.760Z,21.85
2022-09-23T22:17:14.390Z,18.05
2022-09-23T22:19:46.730Z,22.00
2022-09-23T22:22:15.686Z,21.48
2022-09-23T22:24:43.481Z,19.30
2022-09-23T22:27:11.712Z,26.17
2022-09-23T22:29:56.503Z,22.33
2022-09-23T22:32:41.462Z,28.20
2022-09-23T22:35:09.192Z,22.88
2022-09-23T22:37:36.993Z,22.25
2022-09-23T22:40:05.205Z,22.90
2022-09-23T22:42:32.715Z,19.98
2022-09-23T22:45:00.132Z,25.98
2022-09-23T22:47:28.966Z,22.77
2022-09-23T22:49:56.397Z,21.73
2022-09-23T22:52:25.075Z,19.27
2022-09-23T22:54:52.537Z,24.63
2022-09-23T22:57:20.336Z,25.52
2022-09-23T22:59:48.749Z,25.27
2022-09-23T23:02:17.704Z,24.13
2022-09-23T23:04:46.980Z,19.52
2022-09-23T23:07:14.610Z,21.05
2022-09-23T23:09:42.323Z,17.45
2022-09-23T23:12:09.737Z,25.50
2022-09-23T23:14:37.675Z,15.80
2022-09-23T23:19:35.106Z,15.65
2022-09-23T23:22:04.350Z,19.08
2022-09-23T23:24:32.314Z,15.40
2022-09-23T23:29:27.707Z,17.92
2022-09-23T23:31:55.247Z,16.63
2022-09-23T23:34:23.089Z,15.40
2022-09-23T23:36:54.597Z,18.45
2022-09-23T23:39:24.495Z,17.30
2022-09-23T23:41:52.677Z,13.38
2022-09-23T23:44:20.080Z,13.23
2022-09-23T23:46:48.096Z,16.52
2022-09-23T23:49:15.699Z,14.48
2022-09-23T23:51:43.244Z,13.43
2022-09-23T23:54:11.667Z,14.10
2022-09-23T23:56:40.476Z,23.90
2022-09-23T23:59:07.905Z,13.02
